createdAt,value
2018-05-18T00:24:36.724Z,11.3
2018-05-18T00:37:46.408Z,11.2
2018-05-18T00:50:20.958Z,11.2
2018-05-18T01:11:40.678Z,11.1
2018-05-18T01:23:54.466Z,10.9
2018-05-18T01:36:53.743Z,10.9
2018-05-18T02:08:10.186Z,10.7
2018-05-18T02:18:21.988Z,10.7
2018-05-18T02:28:36.438Z,10.6
2018-05-18T02:39:21.687Z,10.5
2018-05-18T02:49:36.039Z,10.4
2018-05-18T02:59:50.212Z,10.4
2018-05-18T03:10:04.404Z,10.3
2018-05-18T03:20:16.526Z,10.2
2018-05-18T03:31:02.330Z,10.0
2018-05-18T03:41:48.804Z,9.9
2018-05-18T03:52:46.392Z,9.9
2018-05-18T04:02:59.945Z,9.9
2018-05-18T04:13:11.270Z,9.8
2018-05-18T04:24:01.565Z,9.7
2018-05-18T04:34:16.582Z,9.7
2018-05-18T04:44:40.337Z,9.7
2018-05-18T04:54:54.765Z,9.7
2018-05-18T05:15:57.850Z,9.8
2018-05-18T05:26:12.103Z,10.0
2018-05-18T05:36:24.424Z,10.2
2018-05-18T05:46:38.950Z,10.4
2018-05-18T05:56:53.043Z,10.6
2018-05-18T06:07:07.191Z,10.8
2018-05-18T06:17:52.582Z,11.3
2018-05-18T06:28:03.824Z,11.3
2018-05-18T06:38:50.930Z,12.0
2018-05-18T06:49:37.431Z,12.4
2018-05-18T06:59:59.246Z,12.4
2018-05-18T07:10:13.469Z,12.8
2018-05-18T07:20:27.191Z,13.0
2018-05-18T07:41:29.295Z,14.3
2018-05-18T07:51:42.004Z,14.4
2018-05-18T08:01:55.920Z,14.8
2018-05-18T08:12:41.455Z,15.6
2018-05-18T08:22:52.912Z,15.6
2018-05-18T08:33:07.049Z,15.9
2018-05-18T08:43:19.297Z,16.4
2018-05-18T08:53:31.633Z,17.1
2018-05-18T09:03:45.955Z,17.5
2018-05-18T09:13:58.798Z,18.1
2018-05-18T09:24:13.617Z,18.4
2018-05-18T09:34:26.075Z,18.6
2018-05-18T09:45:13.874Z,20.0
2018-05-18T09:55:26.110Z,20.0
2018-05-18T10:06:11.607Z,21.7
2018-05-18T10:16:26.470Z,21.7
2018-05-18T10:26:41.230Z,22.3
2018-05-18T10:36:55.156Z,23.1
2018-05-18T10:47:10.951Z,24.1
2018-05-18T10:57:26.371Z,24.8
2018-05-18T11:07:40.916Z,25.4
2018-05-18T11:18:00.478Z,26.0
2018-05-18T11:28:48.739Z,26.6
2018-05-18T11:39:01.266Z,26.6
2018-05-18T11:59:31.545Z,27.8
2018-05-18T12:09:45.919Z,28.1
2018-05-18T12:20:32.380Z,28.1
2018-05-18T12:32:02.488Z,28.1
2018-05-18T12:42:17.658Z,28.1
2018-05-18T12:52:31.587Z,28.0
2018-05-18T13:02:48.578Z,27.9
2018-05-18T13:13:11.018Z,27.8
2018-05-18T13:23:28.732Z,27.6
2018-05-18T13:33:51.489Z,27.3
2018-05-18T13:44:25.957Z,27.1
2018-05-18T13:55:13.341Z,27.2
2018-05-18T14:06:05.838Z,27.2
2018-05-18T14:16:51.437Z,27.3
2018-05-18T14:27:03.890Z,27.3
2018-05-18T14:37:18.096Z,27.3
2018-05-18T14:47:31.747Z,27.4
2018-05-18T14:57:46.071Z,27.5
2018-05-18T15:07:59.745Z,27.3
2018-05-18T15:18:18.648Z,26.9
2018-05-18T15:39:23.217Z,26.1
2018-05-18T15:50:16.958Z,25.0
2018-05-18T16:00:31.487Z,25.0
2018-05-18T16:22:13.070Z,24.0
2018-05-18T16:49:59.942Z,22.5
2018-05-18T17:00:15.084Z,22.5
2018-05-18T17:11:20.794Z,21.7
2018-05-18T17:22:08.153Z,21.4
2018-05-18T17:32:21.635Z,21.4
2018-05-18T17:44:12.349Z,20.5
2018-05-18T17:54:27.598Z,20.5
2018-05-18T18:33:15.709Z,19.0
2018-05-18T19:07:02.002Z,17.0
2018-05-18T19:35:14.839Z,15.9
2018-05-18T19:56:01.554Z,15.5
2018-05-18T20:06:13.991Z,14.9
2018-05-18T20:27:29.227Z,14.0
2018-05-18T20:38:57.050Z,13.2
2018-05-18T20:49:18.794Z,13.1
2018-05-18T20:59:33.501Z,12.8
2018-05-18T21:09:51.045Z,12.5
2018-05-18T21:20:37.630Z,11.9
2018-05-18T21:31:25.865Z,11.7
2018-05-18T21:42:15.120Z,11.4
2018-05-18T21:52:34.120Z,11.4
2018-05-18T22:02:58.984Z,11.1
2018-05-18T22:13:10.560Z,10.9
2018-05-18T22:24:07.997Z,10.4
2018-05-18T22:34:54.749Z,10.2
2018-05-18T22:45:39.510Z,9.9
2018-05-18T22:56:26.056Z,9.7
2018-05-18T23:06:40.004Z,9.7
2018-05-18T23:17:32.445Z,9.3
2018-05-18T23:28:18.349Z,9.1
2018-05-18T23:38:29.840Z,9.1
2018-05-18T23:49:14.968Z,8.7
